createdAt,value
2022-11-15T00:00:58.922Z,11.43
2022-11-15T00:03:45.914Z,11.70
2022-11-15T00:06:33.075Z,14.17
2022-11-15T00:09:20.995Z,11.40
2022-11-15T00:12:08.105Z,11.90
2022-11-15T00:14:56.438Z,12.07
2022-11-15T00:17:43.088Z,10.87
2022-11-15T00:20:30.213Z,11.43
2022-11-15T00:23:17.532Z,10.47
2022-11-15T00:26:04.204Z,10.07
2022-11-15T00:28:53.707Z,11.00
2022-11-15T00:31:41.833Z,10.63
2022-11-15T00:34:28.658Z,11.13
2022-11-15T00:37:15.255Z,9.80
2022-11-15T00:40:02.413Z,11.03
2022-11-15T00:42:49.025Z,11.80
2022-11-15T00:45:38.738Z,10.30
2022-11-15T00:48:26.816Z,10.97
2022-11-15T00:51:13.810Z,10.60
2022-11-15T00:54:00.480Z,10.93
2022-11-15T00:56:47.346Z,9.83
2022-11-15T00:59:34.087Z,11.87
2022-11-15T01:02:20.682Z,10.00
2022-11-15T01:05:10.581Z,10.60
2022-11-15T01:07:58.601Z,10.67
2022-11-15T01:10:46.841Z,10.50
2022-11-15T01:13:34.723Z,10.87
2022-11-15T01:16:21.628Z,9.20
2022-11-15T01:19:08.312Z,11.63
2022-11-15T01:21:56.383Z,9.00
2022-11-15T01:24:43.148Z,9.60
2022-11-15T01:27:29.991Z,9.83
2022-11-15T01:30:17.777Z,10.03
2022-11-15T01:33:04.961Z,9.53
2022-11-15T01:35:51.880Z,11.30
2022-11-15T01:38:40.099Z,9.87
2022-11-15T01:41:29.261Z,10.53
2022-11-15T01:44:40.968Z,11.10
2022-11-15T01:47:30.614Z,11.50
2022-11-15T01:50:22.080Z,10.10
2022-11-15T01:53:09.020Z,10.40
2022-11-15T01:55:57.881Z,10.77
2022-11-15T01:58:47.381Z,10.57
2022-11-15T02:01:35.912Z,9.97
2022-11-15T02:04:27.067Z,10.03
2022-11-15T02:07:18.279Z,10.70
2022-11-15T02:10:10.276Z,9.43
2022-11-15T02:13:01.621Z,9.03
2022-11-15T02:16:02.779Z,7.97
2022-11-15T02:18:54.195Z,10.80
2022-11-15T02:21:46.272Z,8.50
2022-11-15T02:25:05.382Z,8.30
2022-11-15T02:28:18.505Z,8.27
2022-11-15T02:31:15.982Z,7.93
2022-11-15T02:34:10.547Z,8.73
2022-11-15T02:37:05.348Z,8.93
2022-11-15T02:39:58.731Z,10.33
2022-11-15T02:43:08.629Z,9.10
2022-11-15T02:46:04.453Z,10.23
2022-11-15T02:48:53.702Z,8.83
2022-11-15T02:51:41.798Z,8.87
2022-11-15T02:54:32.413Z,9.67
2022-11-15T02:57:24.399Z,7.97
2022-11-15T03:00:14.738Z,8.47
2022-11-15T03:03:15.968Z,6.80
2022-11-15T03:06:16.434Z,5.90
2022-11-15T03:09:09.937Z,8.10
2022-11-15T03:12:01.794Z,7.23
2022-11-15T03:14:58.140Z,6.43
2022-11-15T03:17:51.156Z,7.97
2022-11-15T03:20:39.001Z,7.63
2022-11-15T03:23:28.863Z,7.30
2022-11-15T03:26:18.329Z,7.70
2022-11-15T03:29:10.263Z,6.90
2022-11-15T03:32:02.473Z,6.60
2022-11-15T03:34:54.284Z,6.77
2022-11-15T03:37:46.383Z,6.53
2022-11-15T03:40:39.503Z,6.80
2022-11-15T03:43:32.813Z,8.80
2022-11-15T03:46:25.279Z,6.43
2022-11-15T03:49:15.581Z,5.43
2022-11-15T03:52:04.396Z,5.37
2022-11-15T03:54:57.233Z,7.33
2022-11-15T03:57:45.637Z,5.03
2022-11-15T04:00:32.632Z,7.00
2022-11-15T04:03:19.316Z,5.00
2022-11-15T04:06:06.451Z,5.80
2022-11-15T04:08:53.006Z,5.93
2022-11-15T04:11:39.784Z,4.60
2022-11-15T04:14:27.744Z,5.17
2022-11-15T04:17:14.347Z,4.43
2022-11-15T04:20:18.544Z,4.30
2022-11-15T04:23:25.712Z,4.67
2022-11-15T04:26:14.652Z,4.80
2022-11-15T04:29:24.736Z,4.67
2022-11-15T04:32:13.316Z,5.60
2022-11-15T04:35:01.079Z,5.13
2022-11-15T04:37:49.578Z,5.47
2022-11-15T04:40:37.123Z,5.83
2022-11-15T04:43:23.861Z,4.77
2022-11-15T04:46:10.844Z,4.20
2022-11-15T04:48:59.598Z,4.63
2022-11-15T04:51:46.955Z,4.77
2022-11-15T04:54:34.147Z,4.97
2022-11-15T04:57:21.204Z,7.03
2022-11-15T05:00:10.606Z,5.13
2022-11-15T05:03:15.848Z,6.57
2022-11-15T05:06:04.479Z,6.53
2022-11-15T05:08:52.371Z,7.17
2022-11-15T05:11:39.330Z,5.03
2022-11-15T05:14:26.214Z,4.93
2022-11-15T05:17:13.260Z,6.13
2022-11-15T05:20:00.090Z,5.07
2022-11-15T05:22:48.318Z,4.60
2022-11-15T05:25:35.471Z,5.73
2022-11-15T05:28:22.412Z,4.33
2022-11-15T05:31:11.666Z,4.60
2022-11-15T05:34:00.320Z,5.07
2022-11-15T05:36:47.578Z,4.83
2022-11-15T05:39:35.617Z,4.60
2022-11-15T05:42:22.715Z,7.10
2022-11-15T05:45:11.267Z,4.93
2022-11-15T05:48:01.143Z,6.90
2022-11-15T05:50:49.600Z,4.50
2022-11-15T05:53:38.714Z,5.93
2022-11-15T05:56:27.114Z,4.93
2022-11-15T05:59:14.605Z,7.07
2022-11-15T06:02:01.285Z,5.73
2022-11-15T06:04:48.481Z,4.93
2022-11-15T06:07:35.277Z,5.37
2022-11-15T06:10:22.719Z,5.17
2022-11-15T06:13:11.255Z,5.80
2022-11-15T06:15:58.265Z,5.87
2022-11-15T06:18:45.078Z,7.73
2022-11-15T06:21:31.886Z,8.50
2022-11-15T06:24:18.504Z,6.60
2022-11-15T06:27:05.315Z,8.03
2022-11-15T06:29:53.655Z,6.23
2022-11-15T06:32:40.352Z,6.07
2022-11-15T06:35:27.008Z,5.70
2022-11-15T06:38:13.938Z,5.83
2022-11-15T06:41:04.454Z,6.87
2022-11-15T06:43:51.466Z,7.33
2022-11-15T06:46:39.561Z,7.47
2022-11-15T06:49:26.345Z,7.37
2022-11-15T06:52:12.919Z,8.17
2022-11-15T06:55:00.112Z,18.10
2022-11-15T06:57:50.971Z,34.37
2022-11-15T07:00:38.016Z,8.00
2022-11-15T07:03:26.330Z,10.00
2022-11-15T07:06:13.416Z,6.47
2022-11-15T07:09:00.196Z,6.30
2022-11-15T07:11:47.022Z,9.00
2022-11-15T07:14:33.990Z,8.83
2022-11-15T07:17:20.720Z,5.70
2022-11-15T07:20:09.857Z,6.23
2022-11-15T07:23:02.942Z,5.43
2022-11-15T07:25:49.575Z,6.27
2022-11-15T07:28:37.018Z,5.70
2022-11-15T07:31:24.418Z,5.30
2022-11-15T07:34:11.656Z,5.70
2022-11-15T07:36:59.894Z,11.63
2022-11-15T07:39:46.973Z,24.03
2022-11-15T07:42:51.497Z,14.70
2022-11-15T07:45:44.619Z,14.87
2022-11-15T07:48:42.665Z,13.97
2022-11-15T07:51:31.205Z,17.23
2022-11-15T07:54:19.524Z,17.33
2022-11-15T07:57:08.122Z,14.07
2022-11-15T07:59:55.253Z,11.87
2022-11-15T08:02:42.608Z,8.67
2022-11-15T08:05:29.432Z,8.70
2022-11-15T08:08:16.044Z,6.87
2022-11-15T08:11:04.216Z,7.90
2022-11-15T08:13:51.424Z,5.90
2022-11-15T08:16:38.060Z,6.80
2022-11-15T08:19:24.806Z,6.83
2022-11-15T08:22:11.891Z,8.73
2022-11-15T08:24:58.764Z,6.97
2022-11-15T08:27:48.286Z,8.00
2022-11-15T08:30:38.873Z,6.47
2022-11-15T08:33:26.024Z,8.40
2022-11-15T08:36:17.735Z,10.70
2022-11-15T08:39:04.456Z,10.33
2022-11-15T08:41:51.449Z,9.70
2022-11-15T08:44:39.837Z,8.63
2022-11-15T08:47:27.393Z,16.50
2022-11-15T08:50:13.973Z,12.80
2022-11-15T08:53:06.980Z,12.87
2022-11-15T08:55:53.611Z,7.23
2022-11-15T08:58:40.885Z,7.23
2022-11-15T09:01:28.964Z,8.17
2022-11-15T09:04:17.211Z,7.50
2022-11-15T09:07:03.836Z,7.70
2022-11-15T09:09:51.001Z,7.87
2022-11-15T09:12:37.959Z,8.70
2022-11-15T09:15:24.874Z,9.07
2022-11-15T09:18:12.989Z,7.43
2022-11-15T09:21:00.703Z,6.10
2022-11-15T09:23:47.373Z,5.83
2022-11-15T09:26:34.005Z,6.60
2022-11-15T09:29:20.708Z,9.03
2022-11-15T09:32:07.374Z,7.90
2022-11-15T09:34:55.404Z,6.33
2022-11-15T09:37:42.449Z,6.73
2022-11-15T09:40:30.930Z,6.63
2022-11-15T09:43:30.993Z,5.17
2022-11-15T09:46:26.153Z,6.27
2022-11-15T09:49:16.048Z,5.83
2022-11-15T09:52:13.369Z,7.83
2022-11-15T09:54:54.897Z,5.73
2022-11-15T09:57:34.301Z,5.33
2022-11-15T10:00:44.302Z,6.17
2022-11-15T10:03:16.140Z,4.40
2022-11-15T10:05:47.286Z,4.53
2022-11-15T10:08:33.988Z,4.60
2022-11-15T10:13:56.676Z,6.37
2022-11-15T10:17:06.126Z,4.53
2022-11-15T10:19:41.171Z,5.33
2022-11-15T10:22:24.189Z,4.40
2022-11-15T10:25:12.110Z,4.60
2022-11-15T10:27:42.141Z,5.33
2022-11-15T10:30:15.095Z,5.17
2022-11-15T10:32:45.687Z,5.43
2022-11-15T10:35:23.042Z,4.77
2022-11-15T10:37:51.496Z,5.23
2022-11-15T10:40:23.970Z,5.07
2022-11-15T10:43:08.247Z,5.37
2022-11-15T10:45:36.845Z,4.70
2022-11-15T10:48:24.392Z,8.67
2022-11-15T10:50:54.569Z,6.73
2022-11-15T10:53:28.120Z,7.53
2022-11-15T10:56:02.573Z,4.10
2022-11-15T10:58:37.891Z,4.80
2022-11-15T11:01:14.538Z,5.50
2022-11-15T11:03:44.768Z,4.15
2022-11-15T11:06:15.307Z,5.03
2022-11-15T11:08:57.121Z,5.20
2022-11-15T11:11:27.226Z,5.07
2022-11-15T11:13:55.845Z,6.00
2022-11-15T11:16:46.860Z,4.97
2022-11-15T11:19:50.431Z,4.80
2022-11-15T11:22:26.763Z,5.00
2022-11-15T11:25:10.811Z,5.80
2022-11-15T11:27:48.292Z,4.55
2022-11-15T11:30:21.772Z,5.80
2022-11-15T11:33:05.946Z,3.93
2022-11-15T11:35:41.557Z,3.90
2022-11-15T11:38:22.099Z,4.57
2022-11-15T11:41:02.143Z,4.88
2022-11-15T11:43:43.485Z,6.63
2022-11-15T11:46:29.154Z,4.23
2022-11-15T11:49:06.380Z,4.40
2022-11-15T11:51:41.799Z,6.23
2022-11-15T11:54:19.404Z,4.97
2022-11-15T11:56:48.123Z,3.67
2022-11-15T11:59:26.594Z,5.23
2022-11-15T12:01:55.101Z,3.67
2022-11-15T12:04:31.281Z,3.73
2022-11-15T12:07:03.597Z,6.60
2022-11-15T12:09:37.073Z,9.27
2022-11-15T12:12:11.262Z,8.27
2022-11-15T12:14:48.779Z,8.20
2022-11-15T12:17:21.951Z,5.97
2022-11-15T12:19:50.762Z,3.50
2022-11-15T12:22:22.891Z,4.40
2022-11-15T12:24:55.812Z,3.30
2022-11-15T12:27:32.800Z,3.67
2022-11-15T12:30:05.815Z,4.95
2022-11-15T12:32:37.660Z,5.25
2022-11-15T12:35:21.807Z,4.57
2022-11-15T12:37:53.259Z,3.93
2022-11-15T12:40:36.498Z,4.00
2022-11-15T12:43:43.649Z,4.20
2022-11-15T12:46:23.916Z,6.87
2022-11-15T12:48:58.016Z,4.00
2022-11-15T12:52:05.764Z,4.03
2022-11-15T12:54:55.147Z,3.50
2022-11-15T12:57:40.399Z,4.63
2022-11-15T13:00:40.118Z,4.88
2022-11-15T13:03:30.757Z,5.03
2022-11-15T13:06:42.059Z,6.80
2022-11-15T13:09:47.687Z,5.75
2022-11-15T13:13:00.099Z,8.27
2022-11-15T13:16:01.323Z,6.38
2022-11-15T13:18:40.987Z,7.40
2022-11-15T13:21:41.889Z,4.27
2022-11-15T13:24:17.882Z,5.37
2022-11-15T13:26:46.338Z,4.00
2022-11-15T13:29:21.724Z,4.07
2022-11-15T13:31:50.814Z,4.17
2022-11-15T13:34:50.488Z,5.53
2022-11-15T13:37:33.478Z,5.50
2022-11-15T13:40:25.889Z,7.37
2022-11-15T13:42:54.154Z,10.07
2022-11-15T13:45:24.071Z,7.13
2022-11-15T13:47:58.123Z,8.33
2022-11-15T13:50:30.173Z,8.30
2022-11-15T13:53:03.478Z,6.87
2022-11-15T13:55:34.444Z,5.57
2022-11-15T13:58:07.270Z,6.00
2022-11-15T14:00:41.710Z,5.37
2022-11-15T14:03:20.685Z,5.97
2022-11-15T14:06:07.432Z,6.10
2022-11-15T14:08:37.051Z,5.17
2022-11-15T14:11:11.741Z,5.07
2022-11-15T14:13:40.134Z,5.90
2022-11-15T14:16:21.328Z,6.70
2022-11-15T14:18:53.775Z,6.80
2022-11-15T14:21:22.634Z,5.80
2022-11-15T14:23:51.639Z,6.83
2022-11-15T14:26:31.736Z,9.57
2022-11-15T14:29:27.103Z,8.40
2022-11-15T14:32:14.863Z,6.60
2022-11-15T14:34:43.275Z,6.63
2022-11-15T14:37:23.979Z,6.27
2022-11-15T14:39:53.143Z,6.30
2022-11-15T14:42:23.124Z,6.47
2022-11-15T14:44:51.639Z,13.53
2022-11-15T14:47:22.627Z,10.23
2022-11-15T14:49:50.937Z,9.47
2022-11-15T14:52:32.694Z,8.60
2022-11-15T14:55:03.336Z,7.90
2022-11-15T14:57:32.821Z,8.77
2022-11-15T15:00:01.131Z,9.97
2022-11-15T15:02:43.611Z,12.20
2022-11-15T15:05:17.527Z,17.07
2022-11-15T15:07:46.501Z,12.37
2022-11-15T15:13:05.191Z,11.73
2022-11-15T15:15:36.788Z,11.77
2022-11-15T15:18:09.407Z,11.97
2022-11-15T15:20:40.425Z,12.27
2022-11-15T15:23:16.812Z,12.00
2022-11-15T15:25:46.654Z,12.37
2022-11-15T15:28:15.383Z,12.60
2022-11-15T15:30:44.627Z,23.63
2022-11-15T15:33:14.237Z,19.93
2022-11-15T15:35:42.635Z,24.80
2022-11-15T15:38:13.634Z,21.70
2022-11-15T15:40:44.460Z,22.00
2022-11-15T15:43:12.781Z,19.23
2022-11-15T15:45:43.237Z,24.73
2022-11-15T15:48:15.776Z,24.07
2022-11-15T15:50:44.929Z,10.80
2022-11-15T15:53:14.708Z,11.33
2022-11-15T15:55:43.102Z,10.73
2022-11-15T15:58:11.431Z,8.80
2022-11-15T16:00:40.143Z,7.37
2022-11-15T16:03:08.432Z,12.27
2022-11-15T16:05:38.116Z,18.37
2022-11-15T16:08:07.729Z,16.40
2022-11-15T16:10:37.844Z,24.63
2022-11-15T16:13:06.152Z,29.53
2022-11-15T16:15:34.627Z,20.63
2022-11-15T16:18:04.028Z,16.77
2022-11-15T16:20:35.973Z,16.37
2022-11-15T16:23:09.454Z,11.33
2022-11-15T16:25:44.124Z,10.90
2022-11-15T16:28:21.161Z,7.60
2022-11-15T16:30:55.503Z,12.03
2022-11-15T16:33:25.465Z,14.60
2022-11-15T16:35:53.848Z,14.23
2022-11-15T16:38:23.797Z,12.80
2022-11-15T16:40:52.258Z,16.10
2022-11-15T16:43:20.699Z,14.17
2022-11-15T16:45:48.931Z,17.00
2022-11-15T16:48:25.207Z,7.37
2022-11-15T16:50:57.042Z,9.00
2022-11-15T16:53:27.073Z,9.10
2022-11-15T16:55:56.687Z,9.90
2022-11-15T16:58:25.422Z,11.40
2022-11-15T17:00:55.539Z,11.60
2022-11-15T17:03:24.567Z,12.30
2022-11-15T17:05:53.548Z,14.00
2022-11-15T17:08:24.159Z,14.40
2022-11-15T17:10:55.195Z,13.67
2022-11-15T17:13:23.453Z,16.30
2022-11-15T17:15:51.841Z,18.60
2022-11-15T17:18:21.475Z,19.07
2022-11-15T17:20:49.829Z,20.17
2022-11-15T17:23:18.872Z,21.33
2022-11-15T17:25:47.138Z,21.30
2022-11-15T17:28:17.272Z,27.00
2022-11-15T17:30:45.949Z,27.43
2022-11-15T17:33:14.554Z,37.17
2022-11-15T17:35:43.287Z,24.97
2022-11-15T17:38:11.710Z,22.63
2022-11-15T17:40:40.270Z,22.20
2022-11-15T17:43:08.632Z,28.90
2022-11-15T17:45:41.642Z,20.33
2022-11-15T17:48:09.976Z,19.43
2022-11-15T17:50:38.398Z,22.30
2022-11-15T17:53:06.620Z,24.73
2022-11-15T17:55:35.073Z,24.43
2022-11-15T17:58:03.769Z,22.83
2022-11-15T18:00:32.268Z,21.53
2022-11-15T18:03:02.200Z,22.43
2022-11-15T18:05:30.805Z,13.70
2022-11-15T18:07:59.228Z,15.00
2022-11-15T18:10:27.561Z,13.30
2022-11-15T18:12:55.752Z,19.77
2022-11-15T18:15:23.978Z,16.47
2022-11-15T18:17:59.701Z,15.40
2022-11-15T18:20:30.565Z,15.60
2022-11-15T18:22:58.780Z,12.07
2022-11-15T18:25:27.464Z,13.07
2022-11-15T18:27:55.730Z,12.93
2022-11-15T18:30:24.308Z,14.60
2022-11-15T18:32:53.853Z,12.60
2022-11-15T18:35:23.669Z,13.67
2022-11-15T18:37:55.562Z,14.30
2022-11-15T18:40:23.834Z,16.73
2022-11-15T18:42:54.945Z,17.83
2022-11-15T18:45:24.342Z,18.10
2022-11-15T18:47:54.053Z,17.53
2022-11-15T18:50:22.504Z,14.67
2022-11-15T18:52:50.983Z,16.80
2022-11-15T18:55:21.548Z,17.33
2022-11-15T18:57:49.829Z,13.63
2022-11-15T19:00:19.649Z,49.07
2022-11-15T19:02:47.918Z,16.97
2022-11-15T19:05:18.740Z,15.80
2022-11-15T19:07:49.594Z,13.67
2022-11-15T19:10:18.103Z,13.43
2022-11-15T19:12:49.393Z,14.47
2022-11-15T19:15:17.914Z,20.63
2022-11-15T19:17:46.415Z,17.60
2022-11-15T19:20:15.145Z,14.33
2022-11-15T19:22:43.521Z,16.03
2022-11-15T19:25:11.980Z,16.83
2022-11-15T19:27:40.520Z,16.07
2022-11-15T19:30:14.015Z,15.37
2022-11-15T19:32:42.405Z,16.57
2022-11-15T19:35:11.030Z,16.57
2022-11-15T19:37:39.432Z,17.83
2022-11-15T19:40:09.031Z,18.40
2022-11-15T19:42:37.466Z,19.73
2022-11-15T19:45:06.247Z,18.73
2022-11-15T19:47:35.851Z,15.90
2022-11-15T19:50:04.142Z,17.27
2022-11-15T19:52:32.466Z,21.27
2022-11-15T19:55:00.899Z,46.77
2022-11-15T19:57:29.219Z,45.47
2022-11-15T19:59:57.556Z,21.97
2022-11-15T20:02:25.867Z,18.43
2022-11-15T20:04:55.729Z,18.50
2022-11-15T20:07:24.017Z,16.50
2022-11-15T20:09:52.504Z,16.00
2022-11-15T20:12:21.114Z,22.00
2022-11-15T20:14:51.563Z,22.63
2022-11-15T20:17:20.005Z,20.40
2022-11-15T20:19:48.643Z,19.63
2022-11-15T20:22:18.405Z,17.77
2022-11-15T20:24:46.685Z,18.03
2022-11-15T20:27:15.196Z,18.83
2022-11-15T20:29:45.141Z,17.40
2022-11-15T20:32:13.553Z,21.40
2022-11-15T20:34:43.370Z,19.03
2022-11-15T20:37:11.905Z,16.73
2022-11-15T20:39:41.670Z,16.97
2022-11-15T20:42:10.049Z,17.97
2022-11-15T20:44:38.351Z,17.20
2022-11-15T20:47:07.216Z,15.67
2022-11-15T20:49:35.457Z,15.43
2022-11-15T20:52:03.888Z,15.20
2022-11-15T20:54:32.162Z,13.13
2022-11-15T20:57:02.084Z,12.90
2022-11-15T20:59:30.383Z,12.07
2022-11-15T21:01:58.854Z,11.60
2022-11-15T21:04:27.478Z,11.60
2022-11-15T21:06:57.992Z,11.77
2022-11-15T21:09:44.020Z,11.97
2022-11-15T21:12:15.409Z,11.57
2022-11-15T21:14:46.489Z,12.17
2022-11-15T21:17:15.129Z,12.37
2022-11-15T21:19:44.074Z,12.40
2022-11-15T21:22:14.992Z,12.57
2022-11-15T21:24:43.491Z,12.37
2022-11-15T21:27:13.181Z,13.07
2022-11-15T21:29:45.643Z,12.17
2022-11-15T21:32:13.902Z,11.47
2022-11-15T21:34:42.238Z,11.17
2022-11-15T21:37:11.017Z,13.50
2022-11-15T21:39:39.711Z,11.93
2022-11-15T21:42:07.948Z,12.07
2022-11-15T21:44:36.226Z,15.87
2022-11-15T21:47:05.851Z,12.07
2022-11-15T21:49:34.091Z,13.93
2022-11-15T21:52:02.317Z,13.03
2022-11-15T21:54:30.636Z,12.13
2022-11-15T21:56:58.976Z,12.17
2022-11-15T21:59:27.219Z,13.07
2022-11-15T22:02:12.959Z,12.47
2022-11-15T22:04:43.119Z,13.50
2022-11-15T22:07:11.809Z,13.90
2022-11-15T22:09:40.283Z,14.63
2022-11-15T22:12:08.536Z,13.10
2022-11-15T22:14:36.806Z,11.90
2022-11-15T22:17:05.288Z,12.17
2022-11-15T22:19:33.551Z,12.43
2022-11-15T22:22:03.217Z,15.03
2022-11-15T22:24:31.758Z,13.97
2022-11-15T22:27:00.257Z,14.10
2022-11-15T22:29:28.763Z,13.37
2022-11-15T22:31:57.050Z,14.10
2022-11-15T22:34:25.379Z,13.80
2022-11-15T22:37:19.229Z,14.57
2022-11-15T22:39:43.285Z,15.80
2022-11-15T22:42:11.586Z,14.67
2022-11-15T22:44:39.928Z,15.73
2022-11-15T22:47:08.312Z,17.83
2022-11-15T22:49:36.620Z,17.13
2022-11-15T22:52:04.991Z,18.27
2022-11-15T22:54:33.355Z,20.30
2022-11-15T22:57:04.121Z,18.70
2022-11-15T22:59:32.731Z,18.50
2022-11-15T23:02:01.066Z,19.90
2022-11-15T23:04:30.017Z,19.80
2022-11-15T23:06:58.521Z,22.30
2022-11-15T23:09:26.929Z,20.23
2022-11-15T23:12:12.499Z,21.13
2022-11-15T23:14:42.254Z,22.90
2022-11-15T23:17:10.646Z,21.97
2022-11-15T23:19:38.985Z,21.93
2022-11-15T23:22:24.810Z,25.17
2022-11-15T23:24:53.626Z,23.93
2022-11-15T23:27:23.972Z,27.83
2022-11-15T23:30:11.210Z,27.47
2022-11-15T23:32:57.128Z,25.50
2022-11-15T23:35:26.004Z,32.43
2022-11-15T23:37:54.269Z,29.80
2022-11-15T23:40:22.563Z,30.77
2022-11-15T23:42:51.001Z,30.67
2022-11-15T23:45:20.971Z,33.37
2022-11-15T23:47:49.231Z,29.90
2022-11-15T23:50:18.164Z,36.53
2022-11-15T23:52:46.402Z,38.23
2022-11-15T23:55:14.861Z,34.80
2022-11-15T23:57:43.257Z,34.83
